Time;durP1;ratioP1;P1;durP2;ratioP2;P2;SDS_P1;SDS_P2;PMS_P1;PMS_P2;Temp;Humidity;BMP_temperature;BMP_pressure;BME280_temperature;BME280_humidity;BME280_pressure;Samples;Min_cycle;Max_cycle;Signal;HPM_P1;HPM_P2
2021/12/09 14:23:22;;;;;;;32.97;25.15;;;;;;;6.42;62.31;100872.50;2557084;23;20811;-67
2021/12/09 14:24:25;;;;;;;35.97;26.60;;;;;;;6.39;62.54;100874.06;2555663;23;20605;-67
2021/12/09 14:25:31;;;;;;;35.47;26.17;;;;;;;5.91;62.34;100809.75;2555329;23;20156;-67
2021/12/09 14:26:32;;;;;;;36.45;26.58;;;;;;;6.29;62.25;100890.59;2555394;23;20144;-69
2021/12/09 14:27:33;;;;;;;39.40;28.03;;;;;;;6.30;62.88;100900.47;2541318;23;20154;-69
2021/12/09 14:28:34;;;;;;;35.03;26.03;;;;;;;6.19;63.01;100889.44;2542336;23;20212;-69
2021/12/09 14:29:34;;;;;;;37.80;27.75;;;;;;;6.26;62.82;100900.44;2554944;23;20662;-69
2021/12/09 14:30:35;;;;;;;36.43;26.83;;;;;;;6.29;62.48;100899.66;2556373;23;20168;-69
2021/12/09 14:31:48;;;;;;;35.77;26.03;;;;;;;6.30;62.82;100900.47;2542645;23;20165;-69
2021/12/09 14:32:52;;;;;;;34.50;26.25;;;;;;;6.32;62.57;100896.13;2544574;23;20150;-69
2021/12/09 14:33:53;;;;;;;33.85;26.73;;;;;;;5.53;62.56;100777.53;2556234;23;20179;-69
2021/12/09 14:35:00;;;;;;;37.60;27.40;;;;;;;5.75;62.45;100819.56;2556036;23;20233;-69
2021/12/09 14:36:09;;;;;;;35.42;27.27;;;;;;;6.34;62.55;100899.25;2555336;23;20137;-69
2021/12/09 14:37:12;;;;;;;37.92;27.25;;;;;;;6.28;62.43;100898.09;2555407;23;20137;-69
2021/12/09 14:38:18;;;;;;;44.45;28.90;;;;;;;5.35;62.58;100757.56;2543027;23;20157;-69
2021/12/09 14:39:22;;;;;;;37.03;27.05;;;;;;;6.36;62.99;100929.16;2545142;23;20559;-69
2021/12/09 14:40:27;;;;;;;40.67;27.70;;;;;;;6.33;62.90;100919.72;2556740;23;20149;-69
2021/12/09 14:41:29;;;;;;;40.45;26.77;;;;;;;6.35;62.98;100924.81;2557161;23;20210;-69
2021/12/09 14:42:32;;;;;;;34.95;26.63;;;;;;;5.45;62.93;100778.75;2555655;23;20512;-69
2021/12/09 14:43:33;;;;;;;35.95;26.02;;;;;;;6.34;62.85;100912.22;2557142;23;20231;-69
2021/12/09 14:44:34;;;;;;;35.50;26.73;;;;;;;6.38;62.54;100911.03;2556770;23;20235;-69
2021/12/09 14:45:50;;;;;;;36.88;25.80;;;;;;;6.30;62.57;100894.94;2542669;23;20187;-69
2021/12/09 14:47:05;;;;;;;32.35;25.23;;;;;;;6.37;62.37;100914.19;2545827;23;20141;-69
2021/12/09 14:48:10;;;;;;;34.75;25.52;;;;;;;6.39;62.52;100911.81;2556149;23;20584;-69
2021/12/09 14:49:21;;;;;;;37.40;25.65;;;;;;;6.41;61.92;100915.75;2555844;23;20155;-69
2021/12/09 14:50:31;;;;;;;38.95;26.83;;;;;;;6.41;62.42;100920.47;2556062;23;20141;-69
2021/12/09 14:51:31;;;;;;;30.33;23.52;;;;;;;6.39;62.11;100915.38;2556336;23;20138;-69
2021/12/09 14:52:38;;;;;;;33.17;24.87;;;;;;;6.25;62.09;100896.13;2555068;23;20177;-69
2021/12/09 14:53:42;;;;;;;34.63;25.45;;;;;;;6.26;62.51;100903.19;2556244;23;20143;-69
2021/12/09 14:54:42;;;;;;;37.45;25.60;;;;;;;6.27;62.49;100904.78;2556027;23;20469;-69
2021/12/09 14:55:43;;;;;;;34.97;26.17;;;;;;;6.28;63.07;100908.31;2555947;23;20176;-69
2021/12/09 14:56:53;;;;;;;34.97;25.65;;;;;;;6.30;62.76;100908.72;2555772;23;20737;-69
2021/12/09 14:58:05;;;;;;;36.22;26.25;;;;;;;6.33;62.64;100900.44;2556297;23;20145;-69
2021/12/09 14:59:28;;;;;;;35.20;25.25;;;;;;;6.29;62.58;100901.63;2556682;23;20145;-69
2021/12/09 15:00:37;;;;;;;36.78;26.48;;;;;;;6.22;63.19;100910.69;2556787;23;20224;-69
2021/12/09 15:01:38;;;;;;;37.50;26.42;;;;;;;5.66;62.98;100813.66;2543533;23;20227;-69
2021/12/09 15:02:49;;;;;;;35.90;26.40;;;;;;;6.25;62.59;100903.63;2542375;23;20158;-69
2021/12/09 15:04:04;;;;;;;33.90;24.58;;;;;;;6.10;62.61;100882.81;2546101;23;20149;-69
2021/12/09 15:05:12;;;;;;;34.60;24.67;;;;;;;6.31;63.07;100911.03;2556966;23;20178;-69
2021/12/09 15:06:22;;;;;;;33.63;24.50;;;;;;;6.31;62.69;100907.53;2556950;23;20139;-69
2021/12/09 15:07:33;;;;;;;32.45;24.67;;;;;;;6.19;62.54;100905.97;2556988;23;20594;-69
2021/12/09 15:08:52;;;;;;;32.58;25.58;;;;;;;6.23;62.85;100912.25;2556976;23;20144;-69
2021/12/09 15:10:14;;;;;;;33.03;24.98;;;;;;;5.59;63.24;100814.44;2556872;23;20494;-69
2021/12/09 15:11:16;;;;;;;33.40;24.85;;;;;;;6.08;63.13;100907.94;2557151;23;20137;-69
2021/12/09 15:12:18;;;;;;;33.80;25.48;;;;;;;6.08;63.62;100901.66;2556134;23;20505;-69
2021/12/09 15:13:24;;;;;;;33.10;24.83;;;;;;;6.09;63.71;100911.47;2557179;23;20157;-69
2021/12/09 15:14:28;;;;;;;34.25;25.38;;;;;;;5.68;63.41;100841.53;2557170;23;20141;-69
2021/12/09 15:15:33;;;;;;;41.22;25.45;;;;;;;6.17;63.71;100919.34;2557283;23;20753;-69
2021/12/09 15:16:33;;;;;;;34.50;24.45;;;;;;;6.16;63.39;100923.25;2556418;23;20158;-69
2021/12/09 15:17:37;;;;;;;39.87;25.17;;;;;;;5.84;63.67;100872.22;2556646;23;20149;-69
2021/12/09 15:18:40;;;;;;;32.90;24.83;;;;;;;6.19;62.83;100916.19;2556924;23;20239;-69
2021/12/09 15:19:45;;;;;;;34.22;24.92;;;;;;;6.21;63.33;100927.59;2543880;23;20153;-69
2021/12/09 15:20:50;;;;;;;37.08;25.00;;;;;;;6.19;63.24;100925.22;2545321;23;20225;-69
2021/12/09 15:22:13;;;;;;;36.03;26.13;;;;;;;6.23;63.34;100927.97;2557129;23;20153;-69
2021/12/09 15:23:41;;;;;;;38.63;25.27;;;;;;;6.24;63.21;100932.28;2545219;23;20256;-69
2021/12/09 15:25:17;;;;;;;40.85;24.70;;;;;;;5.89;63.51;100874.56;2544764;23;20634;-69
2021/12/09 15:26:32;;;;;;;37.65;25.02;;;;;;;6.15;63.37;100929.19;2483804;23;20169;-69
2021/12/09 15:27:54;;;;;;;39.72;24.73;;;;;;;6.10;63.93;100916.59;2484034;23;20585;-69
2021/12/09 15:29:18;;;;;;;38.03;24.98;;;;;;;5.75;63.80;100864.31;2525383;23;20162;-69
2021/12/09 15:30:56;;;;;;;38.63;26.40;;;;;;;6.12;64.00;100902.44;2544643;23;20161;-69
2021/12/09 15:32:02;;;;;;;35.00;25.27;;;;;;;6.09;63.47;100903.22;2543779;23;20277;-69
2021/12/09 15:33:05;;;;;;;36.78;26.20;;;;;;;6.07;64.33;100891.84;2543366;23;20166;-69
2021/12/09 15:34:18;;;;;;;35.35;26.33;;;;;;;5.95;64.08;100886.75;2544802;23;20150;-69
2021/12/09 15:35:20;;;;;;;35.30;26.10;;;;;;;5.97;65.16;100898.13;2544952;23;20204;-69
2021/12/09 15:36:29;;;;;;;33.88;24.80;;;;;;;6.03;64.59;100904.81;2544813;23;20208;-69
2021/12/09 15:37:33;;;;;;;35.35;24.48;;;;;;;5.32;64.17;100783.06;2544827;23;20503;-69
2021/12/09 15:38:36;;;;;;;35.10;25.92;;;;;;;6.10;64.00;100902.81;2544868;23;20663;-69
2021/12/09 15:39:40;;;;;;;33.42;25.70;;;;;;;6.08;64.19;100905.19;2544763;23;20506;-69
2021/12/09 15:40:43;;;;;;;34.42;25.45;;;;;;;6.10;63.84;100911.09;2544925;23;20157;-69
2021/12/09 15:41:47;;;;;;;35.33;26.52;;;;;;;6.11;63.91;100901.63;2544771;23;20177;-69
2021/12/09 15:42:49;;;;;;;36.85;26.33;;;;;;;5.43;64.50;100794.06;2543449;23;20156;-69
2021/12/09 15:43:51;;;;;;;35.28;25.58;;;;;;;5.70;64.73;100836.44;2544852;23;20565;-69
2021/12/09 15:44:55;;;;;;;34.90;26.27;;;;;;;6.07;64.36;100898.13;2544551;23;20188;-69
2021/12/09 15:46:08;;;;;;;36.67;25.77;;;;;;;6.09;64.11;100895.75;2544569;23;20159;-69
2021/12/09 15:47:16;;;;;;;33.33;25.38;;;;;;;6.08;64.10;100899.69;2544786;23;20577;-69
2021/12/09 15:48:22;;;;;;;36.13;27.25;;;;;;;5.72;64.67;100831.31;2544917;23;20200;-69
2021/12/09 15:49:26;;;;;;;39.65;27.20;;;;;;;6.10;64.45;100893.81;2544580;23;20153;-69
2021/12/09 15:50:29;;;;;;;45.28;27.60;;;;;;;5.62;63.90;100827.41;2544674;23;20157;-69
2021/12/09 15:51:30;;;;;;;39.33;27.58;;;;;;;6.04;64.42;100901.66;2544831;23;20559;-69
2021/12/09 15:52:40;;;;;;;43.67;26.63;;;;;;;6.08;64.48;100907.94;2543340;23;20543;-69
2021/12/09 15:53:57;;;;;;;36.13;26.73;;;;;;;6.06;64.71;100901.28;2544696;23;20170;-69
2021/12/09 15:55:05;;;;;;;34.95;25.80;;;;;;;6.10;64.37;100902.06;2544984;23;20222;-69
2021/12/09 15:56:08;;;;;;;34.65;26.77;;;;;;;6.11;64.13;100904.41;2545044;23;20134;-69
2021/12/09 15:57:13;;;;;;;34.72;27.17;;;;;;;6.11;63.91;100903.63;2544632;23;20157;-69
2021/12/09 15:58:16;;;;;;;38.40;26.05;;;;;;;5.64;64.27;100832.53;2544833;23;20141;-69
2021/12/09 15:59:22;;;;;;;34.88;25.67;;;;;;;6.10;64.36;100900.06;2544678;23;20181;-69
2021/12/09 16:00:25;;;;;;;34.78;26.08;;;;;;;6.09;64.35;100897.72;2531652;23;20222;-69
2021/12/09 16:01:28;;;;;;;33.70;25.23;;;;;;;6.06;64.54;100904.03;2532535;23;20177;-69
2021/12/09 16:02:34;;;;;;;34.17;26.45;;;;;;;6.00;64.32;100894.59;2530428;23;20282;-69
2021/12/09 16:03:35;;;;;;;32.70;25.23;;;;;;;5.95;64.56;100895.75;2533105;23;20187;-69
2021/12/09 16:04:35;;;;;;;36.10;25.20;;;;;;;5.54;64.72;100841.56;2544628;23;20662;-69
2021/12/09 16:05:36;;;;;;;39.03;26.93;;;;;;;5.25;65.03;100787.78;2544817;23;20291;-69
2021/12/09 16:06:37;;;;;;;36.57;24.67;;;;;;;5.92;64.93;100901.28;2544715;23;20154;-69
2021/12/09 16:07:38;;;;;;;37.23;26.17;;;;;;;5.99;64.89;100907.56;2544749;23;20154;-69
2021/12/09 16:08:40;;;;;;;36.53;25.77;;;;;;;5.82;65.28;100872.63;2544803;23;20158;-69
2021/12/09 16:09:41;;;;;;;41.60;28.90;;;;;;;6.01;65.02;100902.44;2544521;23;20178;-69
2021/12/09 16:10:43;;;;;;;37.70;25.52;;;;;;;6.06;65.05;100909.53;2544879;23;20160;-69
2021/12/09 16:11:45;;;;;;;40.47;26.33;;;;;;;6.09;64.53;100914.22;2545426;23;20229;-69
2021/12/09 16:12:46;;;;;;;41.92;27.25;;;;;;;5.17;64.88;100770.50;2544112;23;20233;-69
2021/12/09 16:13:51;;;;;;;39.53;30.80;;;;;;;6.06;64.69;100896.53;2545389;23;20162;-69
2021/12/09 16:14:56;;;;;;;39.85;29.20;;;;;;;6.03;65.14;100896.53;2545637;23;20406;-69
2021/12/09 16:16:04;;;;;;;44.08;30.27;;;;;;;6.01;65.33;100896.94;2545416;23;20143;-69
2021/12/09 16:17:07;;;;;;;40.05;28.42;;;;;;;5.98;64.86;100885.94;2532570;23;20148;-69
2021/12/09 16:18:09;;;;;;;43.40;31.08;;;;;;;5.96;65.25;100880.84;2533033;23;20154;-69
2021/12/09 16:19:10;;;;;;;39.13;28.77;;;;;;;5.94;65.17;100885.94;2545474;23;20158;-69
2021/12/09 16:20:19;;;;;;;45.03;32.78;;;;;;;5.94;65.28;100890.69;2532496;23;20510;-69
2021/12/09 16:21:22;;;;;;;41.97;30.45;;;;;;;5.94;65.83;100905.22;2533847;23;20143;-69
2021/12/09 16:23:24;;;;;;;47.63;32.47;;;;;;;5.97;65.69;100885.19;2545644;23;20154;-69
2021/12/09 16:24:25;;;;;;;57.97;40.97;;;;;;;5.77;64.96;100841.94;2545368;23;20557;-69
2021/12/09 16:25:25;;;;;;;53.40;37.63;;;;;;;5.94;65.33;100874.94;2545616;23;20156;-69
2021/12/09 16:26:26;;;;;;;64.57;45.87;;;;;;;5.66;65.33;100833.72;2545453;23;20158;-69
2021/12/09 16:27:27;;;;;;;59.17;43.22;;;;;;;6.01;65.88;100874.94;2545374;23;20191;-69
2021/12/09 16:28:28;;;;;;;54.20;38.93;;;;;;;6.04;65.08;100882.41;2545417;23;20191;-69
2021/12/09 16:29:29;;;;;;;45.13;32.93;;;;;;;6.11;65.80;100884.38;2532256;23;20165;-69
2021/12/09 16:30:30;;;;;;;42.57;31.90;;;;;;;5.62;64.78;100815.63;2532356;23;20395;-69
2021/12/09 16:31:30;;;;;;;44.70;33.95;;;;;;;6.21;64.82;100898.09;2545539;23;20158;-69
2021/12/09 16:32:32;;;;;;;46.17;33.93;;;;;;;6.27;64.85;100906.75;2544118;23;20164;-69
2021/12/09 16:33:34;;;;;;;51.72;34.30;;;;;;;6.01;64.89;100857.66;2545453;23;20236;-69
2021/12/09 16:34:36;;;;;;;48.63;32.40;;;;;;;6.10;64.83;100889.06;2545268;23;20153;-69
2021/12/09 16:35:37;;;;;;;55.83;33.30;;;;;;;6.29;64.85;100905.16;2545383;23;20620;-69
2021/12/09 16:36:38;;;;;;;48.22;34.75;;;;;;;6.30;64.43;100900.47;2545609;23;20165;-69
2021/12/09 16:37:39;;;;;;;50.83;34.13;;;;;;;6.28;64.83;100900.84;2545359;23;20157;-69
2021/12/09 16:38:42;;;;;;;49.90;34.40;;;;;;;6.26;65.00;100894.94;2545505;23;20195;-69
2021/12/09 16:39:43;;;;;;;52.20;34.35;;;;;;;6.23;65.31;100893.00;2545345;23;20157;-69
2021/12/09 16:40:45;;;;;;;54.37;36.63;;;;;;;5.33;65.05;100757.16;2545587;23;20659;-69
2021/12/09 16:41:46;;;;;;;61.13;37.47;;;;;;;6.19;65.08;100891.41;2545297;23;20150;-69
2021/12/09 16:42:47;;;;;;;55.17;38.63;;;;;;;6.16;65.09;100881.22;2543948;23;20267;-69
2021/12/09 16:43:48;;;;;;;48.75;36.58;;;;;;;5.67;65.24;100832.53;2545377;23;20153;-69
2021/12/09 16:44:48;;;;;;;49.70;35.47;;;;;;;6.02;65.36;100875.72;2545218;23;20192;-69
2021/12/09 16:45:51;;;;;;;51.00;36.23;;;;;;;5.33;65.30;100772.88;2545294;23;20154;-69
2021/12/09 16:46:52;;;;;;;49.67;36.17;;;;;;;6.11;65.93;100893.38;2545329;23;20153;-69
2021/12/09 16:47:55;;;;;;;44.85;35.55;;;;;;;6.08;65.48;100898.91;2532248;23;20222;-69
2021/12/09 16:48:56;;;;;;;46.67;33.80;;;;;;;6.06;65.54;100893.78;2532744;23;20147;-69
2021/12/09 16:49:56;;;;;;;49.80;34.20;;;;;;;5.79;65.15;100848.59;2544998;23;20157;-69
2021/12/09 16:50:58;;;;;;;45.30;34.67;;;;;;;5.89;65.04;100855.31;2545433;23;20149;-69
2021/12/09 16:51:58;;;;;;;44.88;33.45;;;;;;;5.99;65.32;100874.56;2545276;23;20173;-69
2021/12/09 16:53:02;;;;;;;46.10;34.80;;;;;;;5.14;65.23;100743.78;2544081;23;20604;-69
2021/12/09 16:54:03;;;;;;;45.70;35.33;;;;;;;6.01;65.22;100880.44;2545346;23;20228;-69
2021/12/09 16:55:08;;;;;;;40.80;31.27;;;;;;;6.00;65.82;100881.63;2545300;23;20148;-69
2021/12/09 16:56:22;;;;;;;44.40;34.20;;;;;;;5.08;65.92;100753.59;2545659;23;20140;-69
2021/12/09 16:57:40;;;;;;;49.17;35.83;;;;;;;4.91;65.82;100723.38;2545216;23;20193;-69
2021/12/09 16:58:47;;;;;;;57.05;40.15;;;;;;;6.00;65.26;100892.63;2545460;23;20140;-69
2021/12/09 16:59:49;;;;;;;75.80;50.83;;;;;;;5.57;65.63;100822.31;2545427;23;20140;-69
2021/12/09 17:00:50;;;;;;;73.43;49.25;;;;;;;5.75;65.62;100839.56;2545271;23;20159;-69
2021/12/09 17:01:58;;;;;;;67.43;45.93;;;;;;;5.96;65.76;100869.84;2545488;23;20154;-69
2021/12/09 17:03:01;;;;;;;72.28;50.25;;;;;;;5.77;66.20;100852.94;2544029;23;20141;-69
2021/12/09 17:04:04;;;;;;;75.50;52.70;;;;;;;5.97;66.20;100873.38;2545319;23;20224;-69
2021/12/09 17:05:05;;;;;;;95.22;65.53;;;;;;;5.11;66.06;100736.34;2545182;23;20194;-69
2021/12/09 17:06:07;;;;;;;104.53;70.80;;;;;;;5.99;65.65;100869.06;2545436;23;20155;-69
2021/12/09 17:07:09;;;;;;;80.85;55.85;;;;;;;6.04;66.13;100873.34;2545382;23;20180;-69
2021/12/09 17:08:09;;;;;;;85.00;56.53;;;;;;;6.03;66.16;100861.59;2545322;23;20149;-69
2021/12/09 17:09:10;;;;;;;91.73;62.67;;;;;;;6.05;66.08;100866.69;2545238;23;20165;-69
2021/12/09 17:10:13;;;;;;;93.67;67.27;;;;;;;6.06;65.78;100871.78;2531840;23;20658;-69
2021/12/09 17:11:13;;;;;;;104.70;72.47;;;;;;;6.07;66.02;100873.38;2520306;23;20250;-69
2021/12/09 17:12:14;;;;;;;101.40;73.20;;;;;;;6.11;65.44;100862.34;2531669;23;20168;-69
2021/12/09 17:13:15;;;;;;;95.20;66.30;;;;;;;6.09;65.99;100853.69;2545191;23;20153;-69
2021/12/09 17:14:16;;;;;;;113.37;85.73;;;;;;;6.10;66.26;100863.53;2545417;23;20160;-69
2021/12/09 17:15:19;;;;;;;135.38;94.88;;;;;;;6.07;65.71;100858.81;2545165;23;20231;-69
2021/12/09 17:16:19;;;;;;;133.75;95.15;;;;;;;6.13;65.73;100869.03;2545192;23;20535;-69
2021/12/09 17:17:21;;;;;;;133.93;96.40;;;;;;;6.12;65.25;100870.22;2545236;23;20231;-69
2021/12/09 17:18:21;;;;;;;138.48;98.03;;;;;;;6.14;65.25;100876.09;2545307;23;20156;-69
2021/12/09 17:19:22;;;;;;;135.20;97.87;;;;;;;6.15;65.45;100874.91;2545263;23;20208;-69
2021/12/09 17:20:26;;;;;;;125.03;91.63;;;;;;;6.21;65.59;100881.56;2545287;23;20518;-69
2021/12/09 17:21:26;;;;;;;116.03;82.30;;;;;;;6.19;65.34;100872.94;2545229;23;20171;-69
2021/12/09 17:22:27;;;;;;;110.00;80.10;;;;;;;6.31;65.23;100871.75;2543523;23;20161;-69
2021/12/09 17:23:27;;;;;;;109.23;80.53;;;;;;;6.33;64.87;100869.38;2545409;23;20398;-69
2021/12/09 17:24:28;;;;;;;108.13;78.70;;;;;;;6.28;65.08;100870.56;2545074;23;20154;-69
2021/12/09 17:25:31;;;;;;;113.63;81.50;;;;;;;6.25;65.62;100859.56;2545043;23;20184;-69
2021/12/09 17:26:38;;;;;;;117.00;84.07;;;;;;;6.23;65.56;100864.69;2545205;23;20179;-69
2021/12/09 17:27:39;;;;;;;119.88;88.70;;;;;;;6.24;65.84;100866.25;2545213;23;20148;-69
2021/12/09 17:28:40;;;;;;;120.67;88.23;;;;;;;6.22;65.79;100872.16;2545280;23;20183;-69
2021/12/09 17:29:41;;;;;;;123.68;89.50;;;;;;;6.26;66.24;100880.41;2544980;23;20164;-69
2021/12/09 17:30:47;;;;;;;114.10;84.03;;;;;;;6.26;65.92;100886.69;2545213;23;20615;-69
2021/12/09 17:31:49;;;;;;;105.90;73.15;;;;;;;6.24;66.05;100867.03;2545195;23;20577;-69
2021/12/09 17:32:56;;;;;;;97.25;69.22;;;;;;;6.21;65.75;100861.53;2543921;23;20153;-69
2021/12/09 17:33:56;;;;;;;96.63;62.80;;;;;;;6.22;66.26;100869.41;2545063;23;20172;-69
2021/12/09 17:34:57;;;;;;;105.20;68.10;;;;;;;6.15;66.01;100852.13;2545394;23;20508;-69
2021/12/09 17:36:03;;;;;;;99.17;69.23;;;;;;;5.63;65.53;100764.94;2545170;23;20160;-69
2021/12/09 17:37:05;;;;;;;93.25;64.15;;;;;;;6.17;65.62;100841.50;2545168;23;20141;-69
2021/12/09 17:38:05;;;;;;;91.15;63.00;;;;;;;6.02;66.14;100818.75;2545178;23;20520;-69
2021/12/09 17:39:12;;;;;;;94.83;64.63;;;;;;;6.19;66.15;100842.69;2545061;23;20176;-69
2021/12/09 17:40:14;;;;;;;90.53;64.13;;;;;;;5.82;66.21;100789.31;2545213;23;20631;-69
2021/12/09 17:41:14;;;;;;;97.40;63.88;;;;;;;6.24;66.22;100852.47;2545207;23;20157;-69
2021/12/09 17:42:15;;;;;;;94.77;63.40;;;;;;;6.23;66.24;100837.16;2544396;23;20191;-69
2021/12/09 17:43:16;;;;;;;87.83;62.13;;;;;;;6.25;66.11;100852.09;2544713;23;20155;-69
2021/12/09 17:44:17;;;;;;;89.38;64.07;;;;;;;6.26;65.83;100852.88;2545107;23;20195;-69
2021/12/09 17:45:19;;;;;;;86.93;57.77;;;;;;;6.30;66.32;100868.19;2545207;23;20583;-69
2021/12/09 17:46:19;;;;;;;83.88;57.55;;;;;;;6.36;65.82;100866.59;2531979;23;20405;-69
2021/12/09 17:47:20;;;;;;;79.93;53.83;;;;;;;6.38;65.44;100868.97;2532230;23;20161;-69
2021/12/09 17:48:22;;;;;;;79.57;55.30;;;;;;;6.38;66.08;100869.75;2545200;23;20225;-69
2021/12/09 17:49:22;;;;;;;84.18;59.97;;;;;;;6.41;65.78;100874.44;2545058;23;20280;-69
2021/12/09 17:50:24;;;;;;;75.00;50.97;;;;;;;5.54;65.61;100737.88;2544963;23;20156;-69
2021/12/09 17:51:25;;;;;;;70.70;49.05;;;;;;;6.38;66.24;100864.25;2545249;23;20159;-69
2021/12/09 17:52:37;;;;;;;71.93;50.17;;;;;;;6.37;65.96;100857.19;2543721;23;20164;-69
2021/12/09 17:53:37;;;;;;;64.70;47.53;;;;;;;6.41;66.28;100860.69;2545269;23;20138;-69
2021/12/09 17:54:38;;;;;;;60.60;42.33;;;;;;;6.43;65.90;100871.31;2545113;23;20183;-69
2021/12/09 17:55:39;;;;;;;55.97;37.40;;;;;;;6.35;65.89;100843.00;2545026;23;20153;-69
2021/12/09 17:56:40;;;;;;;45.27;34.17;;;;;;;6.46;66.24;100854.00;2545113;23;20157;-69
2021/12/09 17:57:41;;;;;;;44.50;32.43;;;;;;;6.49;66.40;100851.22;2544906;23;20595;-69
2021/12/09 17:58:43;;;;;;;39.20;28.25;;;;;;;6.44;66.00;100831.56;2545193;23;20153;-69
2021/12/09 17:59:43;;;;;;;36.50;27.52;;;;;;;6.46;65.93;100851.25;2545056;23;20210;-69
2021/12/09 18:00:44;;;;;;;38.07;26.80;;;;;;;6.49;66.03;100822.91;2545161;23;20150;-69
2021/12/09 18:01:45;;;;;;;38.70;27.10;;;;;;;6.48;66.00;100833.16;2545046;23;20228;-69
2021/12/09 18:02:47;;;;;;;37.63;26.73;;;;;;;5.69;66.18;100711.16;2543989;23;20158;-69
2021/12/09 18:03:47;;;;;;;37.40;26.27;;;;;;;6.44;66.26;100837.88;2545173;23;20188;-69
2021/12/09 18:04:48;;;;;;;37.07;27.17;;;;;;;6.43;66.24;100833.56;2545002;23;20180;-69
2021/12/09 18:05:48;;;;;;;38.37;27.80;;;;;;;6.44;66.39;100837.88;2545133;23;20157;-69
2021/12/09 18:06:49;;;;;;;36.27;27.13;;;;;;;6.47;66.09;100844.56;2545018;23;20205;-69
2021/12/09 18:07:51;;;;;;;37.90;27.67;;;;;;;6.44;66.11;100834.31;2545064;23;20153;-69
2021/12/09 18:08:53;;;;;;;38.15;27.95;;;;;;;6.53;66.03;100848.47;2544924;23;20150;-69
2021/12/09 18:09:53;;;;;;;37.08;27.90;;;;;;;5.96;65.73;100768.06;2545082;23;20160;-69
2021/12/09 18:10:54;;;;;;;37.90;27.43;;;;;;;6.40;66.19;100839.09;2545137;23;20150;-69
2021/12/09 18:11:55;;;;;;;36.53;27.17;;;;;;;6.54;66.03;100852.78;2545177;23;20174;-69
2021/12/09 18:12:56;;;;;;;38.47;27.73;;;;;;;6.52;65.70;100842.16;2543674;23;20309;-69
2021/12/09 18:13:57;;;;;;;35.88;26.45;;;;;;;5.78;65.83;100717.00;2544966;23;20152;-69
2021/12/09 18:14:58;;;;;;;39.47;27.60;;;;;;;6.70;65.58;100875.13;2545120;23;20145;-69
2021/12/09 18:16:06;;;;;;;36.40;26.40;;;;;;;6.74;65.66;100856.63;2544374;23;20199;-69
2021/12/09 18:17:14;;;;;;;40.72;27.20;;;;;;;6.65;65.43;100845.25;2544410;23;20144;-69
2021/12/09 18:18:16;;;;;;;39.47;28.08;;;;;;;6.64;65.80;100835.44;2544779;23;20153;-69
2021/12/09 18:19:17;;;;;;;38.55;27.45;;;;;;;6.27;65.45;100761.69;2544718;23;20160;-69
2021/12/09 18:20:19;;;;;;;39.80;28.20;;;;;;;6.72;65.54;100832.22;2544868;23;20235;-69
2021/12/09 18:21:20;;;;;;;37.05;27.45;;;;;;;6.41;65.29;100785.59;2544848;23;20600;-69
2021/12/09 18:22:20;;;;;;;38.17;27.03;;;;;;;6.72;65.47;100842.47;2543190;23;20558;-69
2021/12/09 18:23:22;;;;;;;40.57;28.27;;;;;;;6.71;65.10;100835.41;2544790;23;20178;-69
2021/12/09 18:24:23;;;;;;;36.00;26.75;;;;;;;5.65;65.35;100661.66;2544641;23;20221;-69
2021/12/09 18:25:24;;;;;;;37.07;27.57;;;;;;;6.77;65.16;100844.81;2544767;23;20149;-69
2021/12/09 18:26:29;;;;;;;40.58;27.42;;;;;;;6.80;64.85;100842.03;2544800;23;20150;-69
2021/12/09 18:27:30;;;;;;;37.13;28.02;;;;;;;6.82;65.20;100853.44;2544833;23;20142;-69
2021/12/09 18:28:31;;;;;;;34.67;26.23;;;;;;;6.43;65.09;100785.97;2544517;23;20157;-69
2021/12/09 18:29:31;;;;;;;37.53;26.50;;;;;;;6.55;64.50;100791.81;2544789;23;20228;-69
2021/12/09 18:30:35;;;;;;;37.47;27.17;;;;;;;6.70;64.78;100834.63;2544862;23;20232;-69
2021/12/09 18:31:35;;;;;;;38.03;27.38;;;;;;;6.62;64.95;100835.81;2545130;23;20153;-69
2021/12/09 18:32:36;;;;;;;38.67;27.60;;;;;;;6.68;65.03;100837.00;2543457;23;20236;-69
2021/12/09 18:33:38;;;;;;;38.57;28.33;;;;;;;5.81;65.14;100705.25;2544646;23;20153;-69
2021/12/09 18:34:39;;;;;;;40.72;27.98;;;;;;;6.50;65.39;100816.22;2544877;23;20157;-69
2021/12/09 18:35:41;;;;;;;39.00;28.37;;;;;;;6.73;65.16;100846.81;2545060;23;20157;-69
2021/12/09 18:36:42;;;;;;;40.88;28.08;;;;;;;6.75;64.89;100844.41;2545033;23;20153;-69
2021/12/09 18:37:54;;;;;;;37.77;27.90;;;;;;;6.41;65.27;100785.59;2544860;23;20176;-69
2021/12/09 18:38:56;;;;;;;39.10;28.17;;;;;;;6.75;65.53;100834.19;2545042;23;20138;-69
2021/12/09 18:39:57;;;;;;;41.50;27.92;;;;;;;6.82;64.79;100855.41;2544875;23;20223;-69
2021/12/09 18:40:58;;;;;;;37.07;26.87;;;;;;;6.67;65.06;100807.09;2545094;23;20280;-69
2021/12/09 18:41:59;;;;;;;40.75;27.95;;;;;;;6.37;65.10;100760.03;2544962;23;20158;-69
2021/12/09 18:43:00;;;;;;;37.03;27.93;;;;;;;5.89;65.32;100680.06;2543597;23;20177;-69
2021/12/09 18:44:01;;;;;;;39.75;26.98;;;;;;;6.87;64.86;100833.72;2531874;23;20246;-69
2021/12/09 18:45:04;;;;;;;37.73;26.67;;;;;;;6.16;64.85;100730.66;2531877;23;20192;-69
2021/12/09 18:46:05;;;;;;;38.85;27.90;;;;;;;6.92;64.64;100840.81;2544935;23;20538;-69
2021/12/09 18:47:05;;;;;;;38.53;28.23;;;;;;;6.92;64.73;100838.81;2544927;23;20157;-69
2021/12/09 18:48:09;;;;;;;37.00;27.40;;;;;;;6.91;64.39;100845.53;2544988;23;20151;-69
2021/12/09 18:49:11;;;;;;;37.92;26.85;;;;;;;6.95;64.84;100857.31;2544802;23;20153;-69
2021/12/09 18:50:15;;;;;;;34.50;26.02;;;;;;;7.01;64.42;100860.41;2531732;23;20160;-69
2021/12/09 18:51:20;;;;;;;37.63;27.42;;;;;;;6.98;64.72;100850.22;2532441;23;20454;-69
2021/12/09 18:52:22;;;;;;;36.28;26.33;;;;;;;6.44;64.20;100774.56;2543432;23;20156;-69
2021/12/09 18:53:22;;;;;;;35.92;26.95;;;;;;;6.95;64.56;100846.28;2544853;23;20154;-69
2021/12/09 18:54:23;;;;;;;37.03;26.80;;;;;;;6.98;64.44;100848.22;2544777;23;20604;-69
2021/12/09 18:55:26;;;;;;;37.97;27.07;;;;;;;6.47;64.49;100751.72;2544990;23;20637;-69
2021/12/09 18:56:27;;;;;;;38.67;27.05;;;;;;;7.00;64.58;100840.34;2544856;23;20167;-69
2021/12/09 18:57:28;;;;;;;36.50;26.90;;;;;;;6.99;64.71;100840.75;2544797;23;20237;-69
2021/12/09 18:58:28;;;;;;;36.57;26.27;;;;;;;7.00;64.45;100851.38;2531640;23;20155;-69
2021/12/09 18:59:29;;;;;;;37.33;26.97;;;;;;;6.99;64.42;100849.81;2532077;23;20215;-69
2021/12/09 19:00:30;;;;;;;36.87;27.13;;;;;;;6.91;64.59;100834.50;2544837;23;20156;-69
2021/12/09 19:01:33;;;;;;;37.77;27.07;;;;;;;6.26;64.70;100723.53;2531898;23;20564;-69
2021/12/09 19:02:33;;;;;;;37.53;26.88;;;;;;;6.99;64.78;100838.78;2531039;23;20377;-69
2021/12/09 19:03:37;;;;;;;40.33;27.10;;;;;;;6.98;64.55;100841.94;2544974;23;20238;-69
2021/12/09 19:04:38;;;;;;;38.95;27.73;;;;;;;6.93;64.97;100834.09;2544581;23;20181;-69
2021/12/09 19:05:40;;;;;;;40.40;26.87;;;;;;;6.42;64.73;100754.13;2544843;23;20576;-69
2021/12/09 19:06:42;;;;;;;39.45;27.63;;;;;;;6.95;64.86;100851.81;2531982;23;20236;-69
2021/12/09 19:07:43;;;;;;;39.55;27.63;;;;;;;6.85;64.75;100830.59;2532093;23;20159;-69
2021/12/09 19:08:45;;;;;;;38.70;27.50;;;;;;;6.89;64.78;100841.59;2544922;23;20229;-69
2021/12/09 19:09:45;;;;;;;36.70;26.98;;;;;;;5.73;65.09;100662.41;2544342;23;20162;-69
2021/12/09 19:10:51;;;;;;;35.53;26.60;;;;;;;6.87;65.64;100852.25;2544866;23;20159;-69
2021/12/09 19:11:52;;;;;;;42.15;27.08;;;;;;;6.86;65.29;100836.88;2544894;23;20174;-69
2021/12/09 19:12:53;;;;;;;36.53;26.67;;;;;;;6.84;65.00;100858.53;2543589;23;20151;-69
2021/12/09 19:13:55;;;;;;;37.72;26.48;;;;;;;6.76;64.66;100848.78;2544935;23;20155;-69
2021/12/09 19:14:56;;;;;;;38.40;26.73;;;;;;;6.74;64.90;100845.63;2544984;23;20208;-69
2021/12/09 19:15:59;;;;;;;36.43;26.83;;;;;;;6.70;65.28;100842.09;2531853;23;20221;-69
2021/12/09 19:17:03;;;;;;;35.50;26.38;;;;;;;6.69;65.27;100844.06;2532446;23;20147;-69